Clay, NY

2:53 PM EST on January 25, 2015 (GMT -0500)
The Pastures | Change Station
CLOSE
Current Station
Personal Weather Station
Location: Cicero, NY
Elevation: 430 ft
Nearby Weather Stations

Elev 430 ft 43.17 °N, 76.08 °W | Updated 17 seconds ago

Mostly Cloudy
Mostly Cloudy
21.4 °F
Feels Like 21 °F
N
2.2
Wind Variable Wind from NW
Gusts 5.8 mph

Today
High -- | Low -- °F
--% Chance of Precip.
Yesterday
High -- | Low -- °F
Precip. -- in
7:26 AM 5:06 PM
Waxing Crescent, 35% visible
Pressure 29.92 in
Visibility 10.0 miles
Clouds Scattered Clouds 2800 ft
Mostly Cloudy 3500 ft
Mostly Cloudy 20000 ft
Windchill 21 °F
Dew Point 4 °F
Humidity 47%
Rainfall 0.00 in
Snow Depth Not available.
UV 1.0 out of 12
Pollen .10 out of 12
Air Quality Not available.
Flu Activity Not available.
METAR KSYR 251854Z 29010KT 10SM SCT028 BKN035 BKN200 M08/M13 A2991 RMK AO2 SLP130 T10781128 $

More Conditions Fewer Conditions

Pressure 29.92 in
Visibility 10.0 miles
Clouds Scattered Clouds 2800 ft
Mostly Cloudy 3500 ft
Mostly Cloudy 20000 ft
Windchill 21 °F
Dew Point 4 °F
Humidity 47%
Rainfall 0.00 in
Snow Depth Not available.
UV 1.0 out of 12
Pollen .10 out of 12
Air Quality Not available.
Flu Activity Not available.
METAR KSYR 251854Z 29010KT 10SM SCT028 BKN035 BKN200 M08/M13 A2991 RMK AO2 SLP130 T10781128 $

More Conditions Fewer Conditions

10-Day Weather Forecast

Almanac

Astronomy

Jan. 25, 2015 Rise Set
Actual Time
Civil Twilight
Nautical Twilight
Astronomical Twilight
Moon
Length of Visible Light
Length of Day
Tomorrow will be .
, % of the Moon is Illuminated

Today's Extremes

State Highs State Lows

Community

WunderPhotos

Upload Photos

1,790,030 photos uploaded!

WunderBlogs® & News

Nearby

Air Quality

  Air Quality AQ Index Pollutant
Not available.

Snow Depth

Station Depth Elevation

Earthquake Activity

City Distance Mag. Time & Date
Minimum magnitude displayed is 2.5.

Coastal Water Temperatures

Place Temperature

Nearby Weather Stations